MHTR

Trujillo

Trujillo, Honduras
METAR MHTR 170000Z 26002KT 5000 VCSH FEW008 SCT018 OVC070 23/22 Q1018
Observed Flight Rules
Jan-17 @ 00:00 UTC (39 minutes ago) Marginal Visual Flight Rules
Wind Visibility Clouds
260° at 2 knots 5,005 meters
  • Few at 800' AGL
  • Scattered at 1,800' AGL
  • Overcast at 7,000' AGL
Temperatures Readings
Current 23°C / 73°F
Dewpoint 22°C / 72°F
Humidity 94%
Altimeter 30.06" Hg
Pressure 1017.92 hPa
Elevation 3
METAR MHTR 170000Z 26002KT 5000 VCSH FEW008 SCT018 OVC070 23/22 Q1018
Observed Flight Rules
Jan-17 @ 00:00 UTC
(39 minutes ago)
MVFR
Wind Visibility
260° at 2 knots 5,005 meters
Clouds
  • Few at 800' AGL
  • Scattered at 1,800' AGL
  • Overcast at 7,000' AGL
Temperature Dewpoint
23°C / 73°F 22°C / 72°F
Humidity Altimeter Pressure
94% 30.06" Hg 1017.92 hPa